createdAt,value
2019-02-09T00:02:44.107Z,73.20
2019-02-09T00:05:49.324Z,73.30
2019-02-09T00:08:41.107Z,73.60
2019-02-09T00:11:33.699Z,73.80
2019-02-09T00:14:34.176Z,73.90
2019-02-09T00:17:54.366Z,74.80
2019-02-09T00:20:46.164Z,74.00
2019-02-09T00:23:44.326Z,74.10
2019-02-09T00:26:36.545Z,74.20
2019-02-09T01:35:52.558Z,72.70
2019-02-09T01:38:44.223Z,73.30
2019-02-09T01:41:37.534Z,73.30
2019-02-09T01:44:31.935Z,73.20
2019-02-09T01:47:25.136Z,73.20
2019-02-09T01:50:22.949Z,73.10
2019-02-09T01:53:27.446Z,73.00
2019-02-09T01:56:31.664Z,73.10
2019-02-09T01:59:24.475Z,73.20
2019-02-09T02:02:21.954Z,73.30
2019-02-09T02:05:13.877Z,73.30
2019-02-09T02:08:06.779Z,73.40
2019-02-09T02:11:24.301Z,73.40
2019-02-09T02:14:21.854Z,74.30
2019-02-09T02:17:21.239Z,73.60
2019-02-09T02:20:33.538Z,73.60
2019-02-09T02:24:02.030Z,73.60
2019-02-09T02:26:53.653Z,73.70
2019-02-09T02:33:17.886Z,73.60
2019-02-09T02:36:10.543Z,73.50
2019-02-09T02:39:01.937Z,73.50
2019-02-09T02:41:54.942Z,73.50
2019-02-09T02:44:46.576Z,73.80
2019-02-09T02:47:39.489Z,74.00
2019-02-09T02:50:51.671Z,74.10
2019-02-09T02:53:56.400Z,74.10
2019-02-09T02:56:53.815Z,74.10
2019-02-09T02:59:45.233Z,74.10
2019-02-09T03:02:37.949Z,74.20
2019-02-09T03:05:41.727Z,74.20
2019-02-09T03:08:32.965Z,74.20
2019-02-09T03:11:45.369Z,74.20
2019-02-09T03:14:38.508Z,74.20
2019-02-09T03:17:38.747Z,74.10
2019-02-09T03:20:30.412Z,73.90
2019-02-09T03:23:22.912Z,73.90
2019-02-09T03:26:15.529Z,73.60
2019-02-09T03:29:09.008Z,73.30
2019-02-09T03:32:06.923Z,73.30
2019-02-09T03:34:59.705Z,73.50
2019-02-09T03:37:56.717Z,73.80
2019-02-09T03:40:49.302Z,73.70
2019-02-09T03:43:48.769Z,73.90
2019-02-09T03:46:39.962Z,73.80
2019-02-09T03:49:31.206Z,74.90
2019-02-09T03:52:24.470Z,75.10
2019-02-09T03:55:28.419Z,75.30
2019-02-09T03:58:21.282Z,75.70
2019-02-09T04:01:13.827Z,75.80
2019-02-09T04:04:05.702Z,75.20
2019-02-09T04:06:57.257Z,75.30
2019-02-09T04:09:48.266Z,75.40
2019-02-09T04:12:39.885Z,75.10
2019-02-09T04:15:32.374Z,74.80
2019-02-09T04:18:30.355Z,74.90
2019-02-09T04:21:21.991Z,74.70
2019-02-09T04:24:14.216Z,74.70
2019-02-09T04:27:07.268Z,74.80
2019-02-09T04:29:58.944Z,74.70
2019-02-09T04:32:51.231Z,74.70
2019-02-09T04:35:43.574Z,74.80
2019-02-09T04:38:38.291Z,75.90
2019-02-09T04:41:39.078Z,75.40
2019-02-09T04:44:30.585Z,75.40
2019-02-09T04:47:22.356Z,75.50
2019-02-09T04:50:14.230Z,75.60
2019-02-09T04:53:07.406Z,75.70
2019-02-09T04:55:59.324Z,75.90
2019-02-09T04:58:51.534Z,75.90
2019-02-09T05:01:43.018Z,76.10
2019-02-09T05:04:37.272Z,76.50
2019-02-09T05:07:29.830Z,76.60
2019-02-09T05:25:20.731Z,76.80
2019-02-09T05:28:12.560Z,77.60
2019-02-09T05:31:03.975Z,77.60
2019-02-09T05:33:56.542Z,77.70
2019-02-09T05:36:49.483Z,77.90
2019-02-09T05:39:41.561Z,77.90
2019-02-09T05:42:33.470Z,78.00
2019-02-09T05:45:25.807Z,79.10
2019-02-09T05:48:19.609Z,78.30
2019-02-09T05:51:12.007Z,78.30
2019-02-09T05:54:03.929Z,78.30
2019-02-09T05:57:02.794Z,78.30
2019-02-09T05:59:55.727Z,78.50
2019-02-09T06:02:48.778Z,78.30
2019-02-09T06:05:40.564Z,78.30
2019-02-09T06:08:31.730Z,78.40
2019-02-09T06:11:25.622Z,78.40
2019-02-09T06:14:20.869Z,78.40
2019-02-09T06:17:20.470Z,78.60
2019-02-09T06:20:13.973Z,78.50
2019-02-09T06:23:05.735Z,78.60
2019-02-09T06:25:58.162Z,78.60
2019-02-09T06:28:49.987Z,78.70
2019-02-09T06:31:42.550Z,78.70
2019-02-09T06:34:40.303Z,78.60
2019-02-09T06:37:32.162Z,78.80
2019-02-09T06:40:24.844Z,78.70
2019-02-09T06:43:18.412Z,78.90
2019-02-09T06:46:11.164Z,78.60
2019-02-09T06:49:05.201Z,78.70
2019-02-09T06:51:57.392Z,78.60
2019-02-09T06:54:49.437Z,78.70
2019-02-09T06:57:42.324Z,78.60
2019-02-09T07:00:41.815Z,78.70
2019-02-09T07:03:43.132Z,78.70
2019-02-09T07:06:37.105Z,78.70
2019-02-09T07:09:41.114Z,78.80
2019-02-09T07:12:33.252Z,78.70
2019-02-09T07:15:26.610Z,78.70
2019-02-09T07:18:18.546Z,78.80
2019-02-09T07:21:10.611Z,78.60
2019-02-09T07:24:02.891Z,78.60
2019-02-09T07:26:55.213Z,78.80
2019-02-09T07:29:48.594Z,78.80
2019-02-09T07:32:40.728Z,78.70
2019-02-09T07:35:34.592Z,78.90
2019-02-09T07:38:28.511Z,79.00
2019-02-09T07:41:28.412Z,79.00
2019-02-09T07:44:21.849Z,79.20
2019-02-09T07:47:15.557Z,78.70
2019-02-09T07:50:07.885Z,78.90
2019-02-09T07:53:00.669Z,79.00
2019-02-09T07:55:54.774Z,78.90
2019-02-09T07:58:49.171Z,78.80
2019-02-09T08:01:47.178Z,78.70
2019-02-09T08:04:39.855Z,78.80
2019-02-09T08:07:33.590Z,78.50
2019-02-09T08:10:26.844Z,78.20
2019-02-09T08:13:18.773Z,78.40
2019-02-09T08:16:11.037Z,78.10
2019-02-09T08:19:04.204Z,78.00
2019-02-09T08:21:56.514Z,77.80
2019-02-09T08:24:48.529Z,77.70
2019-02-09T08:27:45.421Z,78.00
2019-02-09T08:30:40.519Z,78.20
2019-02-09T08:33:32.216Z,78.20
2019-02-09T08:36:24.385Z,78.30
2019-02-09T08:39:29.901Z,78.30
2019-02-09T08:42:41.273Z,78.30
2019-02-09T08:45:33.952Z,78.10
2019-02-09T08:48:32.091Z,78.10
2019-02-09T08:51:30.978Z,78.20
2019-02-09T08:54:24.119Z,78.00
2019-02-09T08:57:16.104Z,77.90
2019-02-09T09:00:24.961Z,77.90
2019-02-09T09:03:16.742Z,77.80
2019-02-09T09:06:08.282Z,77.50
2019-02-09T09:08:59.853Z,77.40
2019-02-09T09:11:51.867Z,76.20
2019-02-09T09:14:44.205Z,75.90
2019-02-09T09:17:36.413Z,75.70
2019-02-09T09:20:35.431Z,76.40
2019-02-09T09:23:28.107Z,76.90
2019-02-09T09:26:21.521Z,77.10
2019-02-09T09:29:13.185Z,75.10
2019-02-09T09:32:06.129Z,74.90
2019-02-09T09:34:58.131Z,74.70
2019-02-09T09:37:51.522Z,74.90
2019-02-09T09:40:45.739Z,75.50
2019-02-09T09:43:37.541Z,74.40
2019-02-09T09:46:29.594Z,74.70
2019-02-09T09:49:23.282Z,74.30
2019-02-09T09:52:16.495Z,74.40
2019-02-09T09:55:09.606Z,74.60
2019-02-09T09:58:02.081Z,75.10
2019-02-09T10:00:54.759Z,74.40
2019-02-09T10:03:46.540Z,74.70
2019-02-09T10:06:38.360Z,75.10
2019-02-09T10:09:39.752Z,74.90
2019-02-09T10:12:31.500Z,74.90
2019-02-09T10:15:25.281Z,74.80
2019-02-09T10:18:17.646Z,74.90
2019-02-09T10:21:09.454Z,75.00
2019-02-09T10:24:00.951Z,75.20
2019-02-09T10:26:54.470Z,75.30
2019-02-09T10:29:46.113Z,75.40
2019-02-09T10:32:44.162Z,75.40
2019-02-09T10:35:31.681Z,75.40
2019-02-09T10:38:31.539Z,75.60
2019-02-09T10:41:23.307Z,75.40
2019-02-09T10:44:16.189Z,75.70
2019-02-09T10:47:09.874Z,76.10
2019-02-09T10:50:03.020Z,75.60
2019-02-09T10:52:54.770Z,75.30
2019-02-09T10:55:47.894Z,75.20
2019-02-09T10:58:39.769Z,75.30
2019-02-09T11:01:32.948Z,75.10
2019-02-09T11:04:25.046Z,75.00
2019-02-09T11:07:22.543Z,75.00
2019-02-09T11:10:15.853Z,74.90
2019-02-09T11:13:07.910Z,74.80
2019-02-09T11:16:01.382Z,74.70
2019-02-09T11:18:52.703Z,74.60
2019-02-09T11:21:44.116Z,74.30
2019-02-09T11:24:36.819Z,74.10
2019-02-09T11:27:29.154Z,73.80
2019-02-09T11:30:23.704Z,73.80
2019-02-09T11:33:15.991Z,73.70
2019-02-09T11:36:14.888Z,73.00
2019-02-09T11:39:10.332Z,72.30
2019-02-09T11:42:02.187Z,72.10
2019-02-09T11:44:54.058Z,71.80
2019-02-09T11:47:45.816Z,71.20
2019-02-09T11:50:38.886Z,71.10
2019-02-09T11:53:30.288Z,70.90
2019-02-09T11:56:21.505Z,70.90
2019-02-09T11:59:13.192Z,70.30
2019-02-09T13:04:56.540Z,65.60
2019-02-09T13:07:48.545Z,66.70
2019-02-09T13:10:41.437Z,67.20
2019-02-09T13:13:33.109Z,66.90
2019-02-09T13:16:25.957Z,66.70
2019-02-09T13:19:18.999Z,65.90
2019-02-09T13:22:29.866Z,65.50
2019-02-09T13:25:22.446Z,65.80
2019-02-09T13:28:19.402Z,65.50
2019-02-09T13:31:11.377Z,65.60
2019-02-09T13:34:03.621Z,65.50
2019-02-09T13:36:55.260Z,65.50
2019-02-09T13:39:47.387Z,65.50
2019-02-09T13:42:39.020Z,65.40
2019-02-09T13:45:32.296Z,65.50
2019-02-09T13:48:24.190Z,65.70
2019-02-09T13:51:16.690Z,65.90
2019-02-09T13:54:09.994Z,65.80
2019-02-09T13:57:03.671Z,65.90
2019-02-09T13:59:56.797Z,66.10
2019-02-09T14:02:49.520Z,66.40
2019-02-09T14:05:43.196Z,66.50
2019-02-09T14:08:35.830Z,66.70
2019-02-09T14:11:28.211Z,66.60
2019-02-09T14:14:20.347Z,66.90
2019-02-09T14:17:12.146Z,67.00
2019-02-09T14:20:05.532Z,66.30
2019-02-09T14:22:57.644Z,66.50
2019-02-09T14:25:49.791Z,66.90
2019-02-09T14:28:41.354Z,66.30
2019-02-09T14:31:33.802Z,66.40
2019-02-09T14:34:25.869Z,66.70
2019-02-09T14:37:17.677Z,66.50
2019-02-09T14:40:09.660Z,66.70
2019-02-09T14:43:01.359Z,66.50
2019-02-09T14:45:52.843Z,66.40
2019-02-09T14:48:44.895Z,66.30
2019-02-09T14:51:37.221Z,67.00
2019-02-09T14:54:28.975Z,66.60
2019-02-09T14:57:20.526Z,67.00
2019-02-09T15:00:13.274Z,67.00
2019-02-09T15:03:06.041Z,66.60
2019-02-09T15:06:00.483Z,67.00
2019-02-09T15:08:52.120Z,67.40
2019-02-09T15:11:46.714Z,67.90
2019-02-09T15:14:43.122Z,68.10
2019-02-09T15:17:36.174Z,68.10
2019-02-09T15:20:28.980Z,68.00
2019-02-09T15:23:21.438Z,68.00
2019-02-09T15:26:12.911Z,68.60
2019-02-09T15:29:05.431Z,68.80
2019-02-09T15:31:57.837Z,69.00
2019-02-09T15:34:49.658Z,69.20
2019-02-09T15:37:43.122Z,69.40
2019-02-09T15:40:35.210Z,69.40
2019-02-09T15:43:28.080Z,69.80
2019-02-09T15:46:20.147Z,70.30
2019-02-09T15:49:12.321Z,70.60
2019-02-09T15:52:05.484Z,70.70
2019-02-09T15:55:03.923Z,71.00
2019-02-09T15:57:58.365Z,70.80
2019-02-09T16:00:50.264Z,70.90
2019-02-09T16:03:45.041Z,69.50
2019-02-09T16:06:36.909Z,69.60
2019-02-09T16:09:28.994Z,69.00
2019-02-09T16:12:21.049Z,68.90
2019-02-09T16:15:13.532Z,68.90
2019-02-09T16:18:05.623Z,68.90
2019-02-09T16:20:57.167Z,69.00
2019-02-09T16:23:50.367Z,68.80
2019-02-09T16:26:50.215Z,68.60
2019-02-09T16:29:45.152Z,68.40
2019-02-09T16:32:37.468Z,68.20
2019-02-09T16:35:30.824Z,68.00
2019-02-09T16:38:22.385Z,68.50
2019-02-09T16:41:14.039Z,68.90
2019-02-09T16:44:06.639Z,67.90
2019-02-09T16:46:58.170Z,68.20
2019-02-09T16:49:50.502Z,68.10
2019-02-09T16:52:42.380Z,68.00
2019-02-09T16:55:34.332Z,67.60
2019-02-09T16:58:25.624Z,67.60
2019-02-09T17:01:16.617Z,67.70
2019-02-09T17:04:08.388Z,67.80
2019-02-09T17:06:59.853Z,67.70
2019-02-09T17:09:51.261Z,67.70
2019-02-09T17:12:43.242Z,67.70
2019-02-09T17:15:36.218Z,67.80
2019-02-09T17:18:27.806Z,67.80
2019-02-09T17:21:19.453Z,68.00
2019-02-09T17:24:11.453Z,68.10
2019-02-09T17:27:03.319Z,68.00
2019-02-09T17:29:55.102Z,68.10
2019-02-09T17:32:46.897Z,68.10
2019-02-09T17:35:39.877Z,68.20
2019-02-09T17:38:31.492Z,68.30
2019-02-09T17:41:22.625Z,68.30
2019-02-09T17:44:14.556Z,68.30
2019-02-09T17:47:06.077Z,68.40
2019-02-09T17:49:58.131Z,68.40
2019-02-09T17:52:50.252Z,68.30
2019-02-09T17:55:42.049Z,68.10
2019-02-09T17:58:34.690Z,68.10
2019-02-09T18:01:25.969Z,68.10
2019-02-09T18:04:18.032Z,68.10
2019-02-09T18:07:09.599Z,68.20
2019-02-09T18:10:01.107Z,68.30
2019-02-09T18:12:52.420Z,68.30
2019-02-09T18:15:44.382Z,68.30
2019-02-09T18:18:36.466Z,68.40
2019-02-09T18:21:28.183Z,68.40
2019-02-09T18:24:19.413Z,68.30
2019-02-09T18:27:11.547Z,68.20
2019-02-09T18:30:03.384Z,68.10
2019-02-09T18:32:55.144Z,67.60
2019-02-09T18:35:46.860Z,67.50
2019-02-09T18:38:39.140Z,67.60
2019-02-09T18:41:31.037Z,67.80
2019-02-09T18:44:22.703Z,67.90
2019-02-09T18:47:14.838Z,68.20
2019-02-09T18:50:07.939Z,68.20
2019-02-09T18:52:59.924Z,68.10
2019-02-09T18:55:51.551Z,68.40
2019-02-09T18:58:43.842Z,68.30
2019-02-09T19:01:35.377Z,68.40
2019-02-09T19:04:27.049Z,68.40
2019-02-09T19:07:19.292Z,68.40
2019-02-09T19:10:12.175Z,68.50
2019-02-09T19:13:04.007Z,69.00
2019-02-09T19:15:55.447Z,68.60
2019-02-09T19:18:47.399Z,68.50
2019-02-09T19:21:40.220Z,68.60
2019-02-09T19:24:32.110Z,68.60
2019-02-09T19:27:24.317Z,68.50
2019-02-09T19:30:18.243Z,68.40
2019-02-09T19:33:09.979Z,68.30
2019-02-09T19:36:01.995Z,68.30
2019-02-09T19:38:54.146Z,68.10
2019-02-09T19:41:47.433Z,68.10
2019-02-09T19:44:39.074Z,68.00
2019-02-09T19:47:31.448Z,68.10
2019-02-09T19:50:23.106Z,68.10
2019-02-09T19:53:15.500Z,67.90
2019-02-09T19:56:07.497Z,67.90
2019-02-09T19:58:59.141Z,67.90
2019-02-09T20:01:50.949Z,67.70
2019-02-09T20:04:42.913Z,67.70
2019-02-09T20:07:34.584Z,67.60
2019-02-09T20:10:27.200Z,67.50
2019-02-09T20:13:18.819Z,67.50
2019-02-09T20:16:10.931Z,67.60
2019-02-09T20:19:02.120Z,67.40
2019-02-09T20:21:53.830Z,67.40
2019-02-09T20:24:46.133Z,67.00
2019-02-09T20:27:38.220Z,66.80
2019-02-09T20:30:30.617Z,66.70
2019-02-09T20:33:22.811Z,66.40
2019-02-09T20:36:14.660Z,66.10
2019-02-09T20:39:07.118Z,65.90
2019-02-09T20:41:58.814Z,65.80
2019-02-09T20:44:52.048Z,65.70
2019-02-09T20:47:49.651Z,65.90
2019-02-09T20:50:36.603Z,65.80
2019-02-09T20:53:28.417Z,65.80
2019-02-09T20:56:20.456Z,66.30
2019-02-09T20:59:12.614Z,65.80
2019-02-09T21:02:04.734Z,65.70
2019-02-09T21:04:56.990Z,65.70
2019-02-09T21:07:48.623Z,65.70
2019-02-09T21:10:40.814Z,65.80
2019-02-09T21:13:32.376Z,65.70
2019-02-09T21:16:24.529Z,65.70
2019-02-09T21:19:16.127Z,65.80
2019-02-09T21:22:08.177Z,65.80
2019-02-09T21:25:00.571Z,65.70
2019-02-09T21:27:53.424Z,65.70
2019-02-09T21:30:45.238Z,65.60
2019-02-09T21:33:37.268Z,66.30
2019-02-09T21:36:28.916Z,65.40
2019-02-09T21:39:20.750Z,65.40
2019-02-09T21:42:12.784Z,65.50
2019-02-09T21:45:04.734Z,65.50
2019-02-09T21:47:57.010Z,65.60
2019-02-09T21:50:48.691Z,65.60
2019-02-09T21:53:40.254Z,65.60
2019-02-09T21:56:32.335Z,65.80
2019-02-09T21:59:24.504Z,65.80
2019-02-09T22:02:16.301Z,65.70
2019-02-09T22:05:08.292Z,65.60
2019-02-09T22:08:00.527Z,65.60
2019-02-09T22:10:52.673Z,65.70
2019-02-09T22:13:44.811Z,65.50
2019-02-09T22:16:36.940Z,65.50
2019-02-09T22:19:28.860Z,65.40
2019-02-09T22:22:20.761Z,65.50
2019-02-09T22:25:14.046Z,65.30
2019-02-09T22:28:06.529Z,65.20
2019-02-09T22:30:58.384Z,65.00
2019-02-09T22:33:50.626Z,65.00
2019-02-09T22:36:42.065Z,64.90
2019-02-09T22:39:34.212Z,64.70
2019-02-09T22:42:25.729Z,64.80
2019-02-09T22:45:17.185Z,64.80
2019-02-09T22:48:09.106Z,64.80
2019-02-09T22:51:01.084Z,64.70
2019-02-09T22:53:52.990Z,64.80
2019-02-09T22:56:45.044Z,64.60
2019-02-09T22:59:36.593Z,64.70
2019-02-09T23:02:28.521Z,64.60
2019-02-09T23:05:38.798Z,64.70
2019-02-09T23:08:31.009Z,64.20
2019-02-09T23:11:23.305Z,64.90
2019-02-09T23:14:15.319Z,65.00
2019-02-09T23:17:08.249Z,64.90
2019-02-09T23:19:59.821Z,64.90
2019-02-09T23:22:52.318Z,65.00
2019-02-09T23:25:44.264Z,64.70
2019-02-09T23:28:36.388Z,64.60
2019-02-09T23:31:28.587Z,64.90
2019-02-09T23:34:20.709Z,64.80
2019-02-09T23:37:13.219Z,64.60
2019-02-09T23:40:05.365Z,64.70
2019-02-09T23:42:58.024Z,64.70
2019-02-09T23:45:49.961Z,64.80
2019-02-09T23:48:42.077Z,64.70
2019-02-09T23:51:33.796Z,64.70
2019-02-09T23:54:25.522Z,64.70
2019-02-09T23:57:17.105Z,64.70
